createdAt,value
2022-09-16T00:01:17.033Z,97651.69
2022-09-16T00:04:06.263Z,97648.63
2022-09-16T00:11:55.043Z,97641.06
2022-09-16T00:14:57.494Z,97644.75
2022-09-16T00:17:46.581Z,97641.91
2022-09-16T00:20:35.697Z,97642.53
2022-09-16T00:24:15.728Z,97645.00
2022-09-16T00:30:11.486Z,97651.00
2022-09-16T00:33:00.731Z,97657.16
2022-09-16T00:35:49.979Z,97653.47
2022-09-16T00:38:39.933Z,97653.47
2022-09-16T00:41:33.416Z,97657.16
2022-09-16T00:44:55.147Z,97655.31
2022-09-16T00:47:52.527Z,97647.66
2022-09-16T00:50:48.454Z,97648.50
2022-09-16T00:54:09.617Z,97645.19
2022-09-16T00:57:04.933Z,97643.53
2022-09-16T00:59:57.015Z,97644.56
2022-09-16T01:02:49.280Z,97641.06
2022-09-16T01:05:39.810Z,97646.22
2022-09-16T01:08:28.923Z,97636.56
2022-09-16T01:11:46.539Z,97644.94
2022-09-16T01:15:32.563Z,97644.28
2022-09-16T01:23:02.922Z,97647.53
2022-09-16T01:27:23.076Z,97644.84
2022-09-16T01:30:15.111Z,97643.41
2022-09-16T01:33:17.360Z,97639.09
2022-09-16T01:37:11.927Z,97643.78
2022-09-16T01:45:20.486Z,97637.16
2022-09-16T01:57:26.861Z,97646.56
2022-09-16T02:05:50.206Z,97643.25
2022-09-16T02:09:36.000Z,97631.75
2022-09-16T02:12:33.687Z,97628.44
2022-09-16T02:15:28.239Z,97632.94
2022-09-16T02:18:27.290Z,97632.09
2022-09-16T02:21:19.068Z,97642.75
2022-09-16T02:24:16.634Z,97640.28
2022-09-16T02:27:14.070Z,97640.28
2022-09-16T02:30:10.402Z,97643.97
2022-09-16T02:33:10.707Z,97647.47
2022-09-16T02:36:05.940Z,97645.00
2022-09-16T02:39:51.090Z,97647.66
2022-09-16T02:43:11.174Z,97647.66
2022-09-16T02:46:14.144Z,97653.00
2022-09-16T02:49:14.025Z,97645.97
2022-09-16T03:03:47.814Z,97637.34
2022-09-16T03:06:37.082Z,97635.72
2022-09-16T03:09:29.837Z,97632.38
2022-09-16T03:12:52.031Z,97641.41
2022-09-16T03:16:00.063Z,97630.94
2022-09-16T03:19:07.295Z,97636.44
2022-09-16T03:22:49.251Z,97634.78
2022-09-16T03:26:00.993Z,97641.13
2022-09-16T03:33:36.632Z,97626.53
2022-09-16T04:03:54.949Z,97629.28
2022-09-16T04:07:41.318Z,97621.47
2022-09-16T04:13:49.087Z,97618.19
2022-09-16T04:18:11.434Z,97620.00
2022-09-16T04:21:53.581Z,97624.50
2022-09-16T04:26:28.357Z,97617.34
2022-09-16T04:32:43.152Z,97611.34
2022-09-16T04:39:06.001Z,97617.53
2022-09-16T04:41:55.105Z,97623.88
2022-09-16T04:44:44.788Z,97609.53
2022-09-16T04:47:34.162Z,97608.69
2022-09-16T04:53:27.622Z,97594.91
2022-09-16T04:56:19.926Z,97620.75
2022-09-16T04:59:09.114Z,97612.75
2022-09-16T05:01:58.302Z,97601.91
2022-09-16T05:05:13.470Z,97619.91
2022-09-16T05:11:56.049Z,97623.41
2022-09-16T05:15:35.609Z,97625.06
2022-09-16T05:18:46.119Z,97619.72
2022-09-16T05:22:07.137Z,97626.72
2022-09-16T05:25:24.101Z,97639.03
2022-09-16T05:31:32.467Z,97625.53
2022-09-16T05:34:28.505Z,97626.34
2022-09-16T05:37:17.647Z,97634.19
2022-09-16T05:40:31.931Z,97624.31
2022-09-16T05:43:30.910Z,97632.97
2022-09-16T05:46:22.660Z,97638.13
2022-09-16T05:52:59.682Z,97642.91
2022-09-16T05:56:27.157Z,97645.38
2022-09-16T06:04:01.326Z,97649.13
2022-09-16T06:07:03.235Z,97650.41
2022-09-16T06:10:18.036Z,97640.41
2022-09-16T06:13:07.899Z,97652.34
2022-09-16T06:15:58.707Z,97647.66
2022-09-16T06:18:48.447Z,97640.28
2022-09-16T06:21:43.059Z,97643.63
2022-09-16T06:24:33.924Z,97639.94
2022-09-16T06:27:23.493Z,97640.59
2022-09-16T06:30:13.580Z,97634.22
2022-09-16T06:33:03.392Z,97638.56
2022-09-16T06:35:53.718Z,97638.38
2022-09-16T06:38:43.977Z,97640.88
2022-09-16T06:41:36.544Z,97641.28
2022-09-16T06:44:26.188Z,97632.25
2022-09-16T06:47:15.895Z,97633.75
2022-09-16T06:50:06.639Z,97633.38
2022-09-16T06:52:56.577Z,97634.00
2022-09-16T06:55:46.075Z,97639.97
2022-09-16T06:58:42.875Z,97633.44
2022-09-16T07:01:35.123Z,97645.59
2022-09-16T07:04:25.624Z,97646.03
2022-09-16T07:07:15.178Z,97641.16
2022-09-16T07:10:06.662Z,97642.41
2022-09-16T07:13:00.380Z,97638.34
2022-09-16T07:16:12.236Z,97639.22
2022-09-16T07:19:06.746Z,97634.81
2022-09-16T07:21:56.225Z,97632.00
2022-09-16T07:24:46.178Z,97631.22
2022-09-16T07:27:35.670Z,97624.09
2022-09-16T07:30:30.216Z,97632.00
2022-09-16T07:33:23.022Z,97620.53
2022-09-16T07:36:15.426Z,97624.69
2022-09-16T07:39:06.661Z,97621.69
2022-09-16T07:41:57.368Z,97622.75
2022-09-16T07:44:47.004Z,97626.31
2022-09-16T07:47:36.573Z,97623.06
2022-09-16T07:50:27.386Z,97630.13
2022-09-16T07:53:19.324Z,97620.09
2022-09-16T07:56:13.272Z,97620.78
2022-09-16T07:59:04.984Z,97621.84
2022-09-16T08:01:59.215Z,97635.25
2022-09-16T08:04:48.869Z,97634.88
2022-09-16T08:07:39.980Z,97624.66
2022-09-16T08:10:32.418Z,97630.84
2022-09-16T08:13:25.089Z,97623.88
2022-09-16T08:16:18.596Z,97625.94
2022-09-16T08:19:08.220Z,97634.22
2022-09-16T08:21:58.157Z,97634.22
2022-09-16T08:24:53.601Z,97630.94
2022-09-16T08:27:45.675Z,97627.88
2022-09-16T08:30:38.587Z,97628.91
2022-09-16T08:33:28.463Z,97632.03
2022-09-16T08:36:21.088Z,97639.63
2022-09-16T08:39:12.375Z,97630.97
2022-09-16T08:42:44.199Z,97629.78
2022-09-16T08:45:46.989Z,97635.16
2022-09-16T08:48:49.626Z,97633.53
2022-09-16T08:51:39.547Z,97629.84
2022-09-16T08:54:38.505Z,97629.84
2022-09-16T08:57:33.674Z,97635.59
2022-09-16T09:00:23.628Z,97629.88
2022-09-16T09:03:32.063Z,97630.91
2022-09-16T09:06:54.953Z,97620.00
2022-09-16T09:10:00.653Z,97633.19
2022-09-16T09:13:01.806Z,97626.16
2022-09-16T09:16:02.346Z,97623.31
2022-09-16T09:19:07.444Z,97627.03
2022-09-16T09:22:16.009Z,97629.06
2022-09-16T09:25:25.418Z,97623.72
2022-09-16T09:28:50.746Z,97622.88
2022-09-16T09:31:55.662Z,97610.50
2022-09-16T09:35:08.826Z,97620.78
2022-09-16T09:38:43.311Z,97610.88
2022-09-16T09:41:41.008Z,97613.13
2022-09-16T09:44:52.319Z,97612.06
2022-09-16T09:47:48.584Z,97620.31
2022-09-16T09:50:44.934Z,97611.00
2022-09-16T09:53:43.338Z,97603.09
2022-09-16T09:56:40.598Z,97605.75
2022-09-16T09:59:41.752Z,97608.63
2022-09-16T10:02:32.821Z,97616.22
2022-09-16T10:05:26.836Z,97611.25
2022-09-16T10:08:27.306Z,97612.47
2022-09-16T10:11:20.845Z,97607.72
2022-09-16T10:14:27.454Z,97618.41
2022-09-16T10:17:19.462Z,97611.38
2022-09-16T10:20:28.929Z,97599.56
2022-09-16T10:23:29.646Z,97599.56
2022-09-16T10:26:24.008Z,97594.75
2022-09-16T10:29:20.908Z,97590.78
2022-09-16T10:32:18.560Z,97589.28
2022-09-16T10:35:16.923Z,97594.59
2022-09-16T10:38:20.375Z,97580.72
2022-09-16T10:41:18.224Z,97582.16
2022-09-16T10:44:18.824Z,97580.06
2022-09-16T10:47:22.624Z,97587.13
2022-09-16T10:50:21.518Z,97585.00
2022-09-16T10:53:27.787Z,97587.47
2022-09-16T10:56:29.719Z,97594.28
2022-09-16T10:59:19.339Z,97581.00
2022-09-16T11:02:27.277Z,97587.59
2022-09-16T11:05:31.617Z,97583.47
2022-09-16T11:08:42.596Z,97584.75
2022-09-16T11:11:54.880Z,97591.16
2022-09-16T11:14:58.031Z,97583.09
2022-09-16T11:18:10.271Z,97588.31
2022-09-16T11:21:34.339Z,97587.56
2022-09-16T11:24:59.587Z,97585.41
2022-09-16T11:28:00.334Z,97589.97
2022-09-16T11:31:01.154Z,97593.97
2022-09-16T11:34:05.783Z,97598.59
2022-09-16T11:37:15.047Z,97585.81
2022-09-16T11:40:23.842Z,97584.19
2022-09-16T11:43:47.185Z,97583.59
2022-09-16T11:46:46.375Z,97577.63
2022-09-16T11:49:56.492Z,97580.94
2022-09-16T11:53:17.424Z,97582.44
2022-09-16T11:56:16.156Z,97579.16
2022-09-16T11:59:16.958Z,97578.97
2022-09-16T12:02:25.207Z,97572.38
2022-09-16T12:05:25.660Z,97567.63
2022-09-16T12:08:24.867Z,97559.56
2022-09-16T12:11:29.182Z,97561.41
2022-09-16T12:14:25.661Z,97544.47
2022-09-16T12:17:23.985Z,97556.03
2022-09-16T12:20:21.393Z,97554.28
2022-09-16T12:23:21.677Z,97555.09
2022-09-16T12:26:18.255Z,97548.25
2022-09-16T12:29:19.927Z,97548.25
2022-09-16T12:32:15.626Z,97551.59
2022-09-16T12:35:15.027Z,97551.81
2022-09-16T12:38:04.959Z,97548.06
2022-09-16T12:41:20.193Z,97544.88
2022-09-16T12:44:39.162Z,97540.72
2022-09-16T12:48:12.493Z,97540.72
2022-09-16T12:51:32.042Z,97532.22
2022-09-16T12:55:09.787Z,97532.81
2022-09-16T12:58:51.801Z,97523.94
2022-09-16T13:01:54.584Z,97525.19
2022-09-16T13:05:12.663Z,97523.00
2022-09-16T13:08:06.340Z,97534.22
2022-09-16T13:11:51.118Z,97526.03
2022-09-16T13:14:25.274Z,97523.44
2022-09-16T13:17:15.000Z,97516.91
2022-09-16T13:20:13.119Z,97520.88
2022-09-16T13:23:15.290Z,97511.81
2022-09-16T13:26:07.935Z,97519.09
2022-09-16T13:28:58.872Z,97519.50
2022-09-16T13:31:50.338Z,97535.00
2022-09-16T13:34:40.028Z,97536.69
2022-09-16T13:37:29.713Z,97532.97
2022-09-16T13:40:22.746Z,97523.91
2022-09-16T13:43:15.491Z,97525.59
2022-09-16T13:46:09.306Z,97523.31
2022-09-16T13:49:16.992Z,97531.16
2022-09-16T13:52:13.210Z,97530.09
2022-09-16T13:55:10.501Z,97526.38
2022-09-16T13:58:07.170Z,97524.94
2022-09-16T14:01:10.496Z,97520.88
2022-09-16T14:09:01.287Z,97519.16
2022-09-16T14:12:03.885Z,97509.41
2022-09-16T14:16:07.902Z,97508.72
2022-09-16T14:19:04.838Z,97502.66
2022-09-16T14:22:04.432Z,97498.84
2022-09-16T14:33:02.502Z,97500.94
2022-09-16T14:35:54.699Z,97496.25
2022-09-16T14:39:14.832Z,97489.41
2022-09-16T14:42:08.409Z,97499.00
2022-09-16T14:44:59.837Z,97492.16
2022-09-16T14:56:33.869Z,97484.31
2022-09-16T15:00:15.766Z,97482.97
2022-09-16T15:04:15.221Z,97481.59
2022-09-16T15:21:13.822Z,97466.97
2022-09-16T15:24:07.517Z,97474.72
2022-09-16T15:31:32.269Z,97473.31
2022-09-16T15:34:26.626Z,97477.38
2022-09-16T15:37:32.904Z,97482.78
2022-09-16T15:40:32.155Z,97489.97
2022-09-16T15:43:29.486Z,97485.56
2022-09-16T15:46:23.077Z,97493.75
2022-09-16T15:49:40.919Z,97491.63
2022-09-16T15:52:56.698Z,97501.28
2022-09-16T15:56:23.952Z,97501.38
2022-09-16T15:59:28.589Z,97504.75
2022-09-16T16:02:47.590Z,97495.31
2022-09-16T16:06:56.789Z,97500.16
2022-09-16T16:12:39.426Z,97512.09
2022-09-16T16:15:34.822Z,97519.59
2022-09-16T16:18:24.058Z,97524.75
2022-09-16T16:21:16.625Z,97528.53
2022-09-16T16:24:05.981Z,97529.19
2022-09-16T16:26:56.907Z,97526.31
2022-09-16T16:29:47.549Z,97525.72
2022-09-16T16:32:38.526Z,97538.72
2022-09-16T16:35:27.622Z,97527.63
2022-09-16T16:38:16.733Z,97533.84
2022-09-16T16:41:05.975Z,97535.47
2022-09-16T16:43:55.510Z,97531.56
2022-09-16T16:46:45.866Z,97523.53
2022-09-16T16:49:35.608Z,97534.44
2022-09-16T16:52:24.733Z,97534.63
2022-09-16T16:55:13.854Z,97535.81
2022-09-16T16:58:02.903Z,97541.59
2022-09-16T17:00:52.131Z,97545.09
2022-09-16T17:03:44.848Z,97548.13
2022-09-16T17:06:36.756Z,97559.63
2022-09-16T17:09:25.891Z,97554.84
2022-09-16T17:12:15.561Z,97562.41
2022-09-16T17:15:05.239Z,97556.81
2022-09-16T17:17:54.292Z,97568.31
2022-09-16T17:20:44.653Z,97569.50
2022-09-16T17:23:34.269Z,97570.06
2022-09-16T17:26:24.938Z,97566.88
2022-09-16T17:29:16.083Z,97578.34
2022-09-16T17:32:06.840Z,97581.81
2022-09-16T17:34:55.922Z,97588.50
2022-09-16T17:37:46.317Z,97587.84
2022-09-16T17:40:35.572Z,97597.66
2022-09-16T17:43:31.921Z,97597.78
2022-09-16T17:46:23.210Z,97595.63
2022-09-16T17:49:18.303Z,97599.44
2022-09-16T18:03:26.874Z,97612.47
2022-09-16T18:06:21.885Z,97608.06
2022-09-16T18:09:11.546Z,97609.66
2022-09-16T18:12:00.618Z,97606.72
2022-09-16T18:14:49.704Z,97606.63
2022-09-16T18:17:38.815Z,97599.34
2022-09-16T18:20:29.754Z,97605.25
2022-09-16T18:23:18.810Z,97613.81
2022-09-16T18:26:10.357Z,97613.56
2022-09-16T18:29:11.334Z,97612.28
2022-09-16T18:32:00.862Z,97611.63
2022-09-16T18:34:50.025Z,97615.31
2022-09-16T18:37:41.161Z,97615.69
2022-09-16T18:40:30.512Z,97621.03
2022-09-16T18:43:19.765Z,97621.41
2022-09-16T18:46:14.680Z,97628.09
2022-09-16T18:49:04.676Z,97629.47
2022-09-16T18:51:54.812Z,97630.88
2022-09-16T18:54:46.963Z,97630.13
2022-09-16T18:57:36.009Z,97631.69
2022-09-16T19:00:25.163Z,97627.09
2022-09-16T19:03:14.886Z,97634.31
2022-09-16T19:06:04.237Z,97637.94
2022-09-16T19:08:53.327Z,97630.66
2022-09-16T19:11:45.232Z,97631.56
2022-09-16T19:14:34.579Z,97621.16
2022-09-16T19:17:24.178Z,97630.88
2022-09-16T19:20:13.659Z,97627.09
2022-09-16T19:23:02.791Z,97627.81
2022-09-16T19:25:53.482Z,97639.19
2022-09-16T19:28:44.068Z,97630.09
2022-09-16T19:31:34.490Z,97631.78
2022-09-16T19:34:23.833Z,97643.13
2022-09-16T19:37:12.902Z,97648.16
2022-09-16T19:40:02.341Z,97650.53
2022-09-16T19:42:51.620Z,97657.84
2022-09-16T19:45:42.395Z,97661.03
2022-09-16T19:48:33.170Z,97666.53
2022-09-16T19:51:24.910Z,97660.56
2022-09-16T19:54:14.514Z,97663.25
2022-09-16T19:57:03.619Z,97664.41
2022-09-16T19:59:55.200Z,97663.75
2022-09-16T20:02:46.866Z,97666.94
2022-09-16T20:05:35.986Z,97661.97
2022-09-16T20:08:25.198Z,97673.31
2022-09-16T20:11:18.135Z,97667.66
2022-09-16T20:14:14.728Z,97674.34
2022-09-16T20:17:04.184Z,97669.38
2022-09-16T20:19:55.223Z,97676.72
2022-09-16T20:22:46.115Z,97668.06
2022-09-16T20:25:37.625Z,97675.38
2022-09-16T20:28:31.697Z,97676.06
2022-09-16T20:31:23.948Z,97681.72
2022-09-16T20:34:16.005Z,97683.94
2022-09-16T20:37:07.092Z,97687.75
2022-09-16T20:39:56.726Z,97687.28
2022-09-16T20:42:45.926Z,97680.81
2022-09-16T20:45:37.608Z,97677.84
2022-09-16T20:48:26.726Z,97682.50
2022-09-16T20:51:18.994Z,97687.31
2022-09-16T20:54:12.483Z,97682.19
2022-09-16T20:57:01.820Z,97684.50
2022-09-16T20:59:51.057Z,97678.72
2022-09-16T21:02:40.261Z,97688.84
2022-09-16T21:05:29.467Z,97701.31
2022-09-16T21:08:18.650Z,97697.81
2022-09-16T21:11:12.632Z,97704.50
2022-09-16T21:14:06.414Z,97706.47
2022-09-16T21:16:55.715Z,97710.13
2022-09-16T21:19:44.831Z,97707.66
2022-09-16T21:22:36.531Z,97714.09
2022-09-16T21:25:25.690Z,97722.25
2022-09-16T21:28:22.354Z,97713.13
2022-09-16T21:31:14.402Z,97708.31
2022-09-16T21:34:03.949Z,97717.97
2022-09-16T21:36:53.800Z,97708.16
2022-09-16T21:39:42.872Z,97711.97
2022-09-16T21:42:32.136Z,97710.50
2022-09-16T21:45:22.794Z,97722.25
2022-09-16T21:48:11.962Z,97722.59
2022-09-16T21:51:05.533Z,97717.81
2022-09-16T21:55:11.127Z,97722.59
2022-09-16T21:58:25.888Z,97729.22
2022-09-16T22:01:19.696Z,97723.09
2022-09-16T22:04:15.193Z,97734.03
2022-09-16T22:07:04.553Z,97728.72
2022-09-16T22:10:01.729Z,97725.56
2022-09-16T22:13:09.202Z,97728.75
2022-09-16T22:16:53.310Z,97739.53
2022-09-16T22:19:43.558Z,97727.38
2022-09-16T22:23:15.553Z,97731.38
2022-09-16T22:26:39.818Z,97738.00
2022-09-16T22:29:32.078Z,97738.34
2022-09-16T22:32:21.198Z,97741.31
2022-09-16T22:35:11.759Z,97737.34
2022-09-16T22:47:13.114Z,97732.00
2022-09-16T22:50:11.733Z,97745.75
2022-09-16T22:56:44.773Z,97748.91
2022-09-16T22:59:34.417Z,97746.72
2022-09-16T23:02:41.920Z,97753.19
2022-09-16T23:05:33.491Z,97753.53
2022-09-16T23:08:53.972Z,97746.84
2022-09-16T23:15:06.907Z,97745.69
2022-09-16T23:18:28.493Z,97751.47
2022-09-16T23:21:27.759Z,97741.69
2022-09-16T23:24:23.613Z,97741.19
2022-09-16T23:27:13.455Z,97735.06
2022-09-16T23:33:09.107Z,97745.16
2022-09-16T23:35:58.353Z,97734.88
2022-09-16T23:38:49.443Z,97736.84
2022-09-16T23:43:02.498Z,97738.16
2022-09-16T23:45:52.001Z,97738.31
2022-09-16T23:49:24.846Z,97742.13
2022-09-16T23:57:31.467Z,97746.09
